Time;durP1;ratioP1;P1;durP2;ratioP2;P2;SDS_P1;SDS_P2;PMS_P1;PMS_P2;Temp;Humidity;BMP_temperature;BMP_pressure;BME280_temperature;BME280_humidity;BME280_pressure;Samples;Min_cycle;Max_cycle;Signal;HPM_P1;HPM_P2
2022/08/07 00:01:44;;;;;;;4.50;1.20;;;;;;;;;;4976657;28;20663;-73
2022/08/07 00:04:13;;;;;;;5.03;1.37;;;;;;;;;;4976946;28;20285;-73
2022/08/07 00:06:40;;;;;;;3.77;1.60;;;;;;;;;;4976633;28;20293;-73
2022/08/07 00:09:08;;;;;;;2.43;1.20;;;;;;;;;;4976697;28;20242;-73
2022/08/07 00:11:35;;;;;;;3.90;1.30;;;;;;;;;;4976971;28;20201;-73
2022/08/07 00:14:02;;;;;;;4.83;1.40;;;;;;;;;;4976418;28;20234;-73
2022/08/07 00:16:29;;;;;;;5.00;1.13;;;;;;;;;;4964754;28;20282;-73
2022/08/07 00:18:57;;;;;;;3.40;1.30;;;;;;;;;;4957416;28;20290;-73
2022/08/07 00:21:25;;;;;;;2.37;1.20;;;;;;;;;;4956432;28;20266;-73
2022/08/07 00:23:52;;;;;;;3.03;1.23;;;;;;;;;;4956860;29;20751;-73
2022/08/07 00:26:20;;;;;;;3.50;1.20;;;;;;;;;;4957275;28;20250;-73
2022/08/07 00:28:47;;;;;;;3.00;1.30;;;;;;;;;;4957119;29;20581;-73
2022/08/07 00:31:14;;;;;;;2.87;1.30;;;;;;;;;;4957122;29;20298;-73
2022/08/07 00:33:41;;;;;;;3.23;1.40;;;;;;;;;;4956918;29;20726;-73
2022/08/07 00:36:09;;;;;;;3.60;1.40;;;;;;;;;;4957385;29;20230;-73
2022/08/07 00:38:38;;;;;;;2.93;1.10;;;;;;;;;;4956837;29;20734;-73
2022/08/07 00:41:06;;;;;;;2.67;1.30;;;;;;;;;;4956720;29;20233;-73
2022/08/07 00:43:33;;;;;;;4.20;1.60;;;;;;;;;;4956600;28;20278;-73
2022/08/07 00:46:01;;;;;;;3.33;1.10;;;;;;;;;;4962891;28;20241;-73
2022/08/07 00:48:29;;;;;;;4.27;1.20;;;;;;;;;;4976034;28;20238;-73
2022/08/07 00:50:56;;;;;;;2.03;1.23;;;;;;;;;;4976013;28;20289;-73
2022/08/07 00:53:24;;;;;;;3.10;1.10;;;;;;;;;;4975979;28;20262;-73
2022/08/07 00:55:52;;;;;;;3.40;1.00;;;;;;;;;;4975735;28;20679;-73
2022/08/07 00:58:21;;;;;;;4.90;1.33;;;;;;;;;;4975760;28;20659;-73
2022/08/07 01:00:49;;;;;;;3.40;1.20;;;;;;;;;;4975467;28;20328;-73
2022/08/07 01:03:16;;;;;;;2.87;1.10;;;;;;;;;;4975995;28;20297;-73
2022/08/07 01:05:45;;;;;;;5.77;1.30;;;;;;;;;;4975866;28;20289;-73
2022/08/07 01:08:12;;;;;;;3.63;1.40;;;;;;;;;;4975881;28;20230;-72
2022/08/07 01:10:41;;;;;;;4.47;1.27;;;;;;;;;;4975617;28;20234;-72
2022/08/07 01:13:10;;;;;;;3.07;1.30;;;;;;;;;;4975749;28;20213;-72
2022/08/07 01:15:37;;;;;;;3.70;1.60;;;;;;;;;;4975466;28;20245;-72
2022/08/07 01:18:05;;;;;;;2.90;1.30;;;;;;;;;;4958929;28;20246;-73
2022/08/07 01:20:35;;;;;;;4.50;1.30;;;;;;;;;;4956280;29;20263;-72
2022/08/07 01:23:04;;;;;;;3.70;1.40;;;;;;;;;;4956126;29;20199;-72
2022/08/07 01:25:32;;;;;;;3.50;1.50;;;;;;;;;;4956078;29;20200;-72
2022/08/07 01:28:00;;;;;;;1.73;1.30;;;;;;;;;;4955984;29;20211;-74
2022/08/07 01:30:27;;;;;;;3.10;1.50;;;;;;;;;;4956212;29;20254;-73
2022/08/07 01:32:55;;;;;;;2.47;1.40;;;;;;;;;;4956056;28;20203;-73
2022/08/07 01:35:22;;;;;;;2.50;1.30;;;;;;;;;;4956254;29;20238;-73
2022/08/07 01:37:49;;;;;;;3.53;1.43;;;;;;;;;;4955968;29;20289;-73
2022/08/07 01:40:20;;;;;;;2.97;1.50;;;;;;;;;;4955473;29;20747;-73
2022/08/07 01:42:47;;;;;;;2.97;1.30;;;;;;;;;;4955788;29;20239;-73
2022/08/07 01:45:15;;;;;;;6.20;1.70;;;;;;;;;;4955776;29;20266;-73
2022/08/07 01:47:42;;;;;;;4.83;1.60;;;;;;;;;;4969496;28;20296;-73
2022/08/07 01:50:10;;;;;;;3.93;1.77;;;;;;;;;;4974953;28;20289;-73
2022/08/07 01:52:39;;;;;;;5.87;1.80;;;;;;;;;;4974881;28;20650;-73
2022/08/07 01:55:08;;;;;;;3.30;1.70;;;;;;;;;;4974552;28;20238;-74
2022/08/07 01:57:38;;;;;;;2.30;1.60;;;;;;;;;;4974989;28;20309;-73
2022/08/07 02:00:07;;;;;;;7.63;1.77;;;;;;;;;;4974552;28;20273;-73
2022/08/07 02:02:36;;;;;;;2.60;1.63;;;;;;;;;;4974910;28;20261;-73
2022/08/07 02:05:06;;;;;;;5.67;1.73;;;;;;;;;;4974346;28;20249;-73
2022/08/07 02:07:36;;;;;;;4.33;1.77;;;;;;;;;;4974568;28;20249;-73
2022/08/07 02:10:04;;;;;;;3.20;1.87;;;;;;;;;;4974112;28;20203;-73
2022/08/07 02:12:34;;;;;;;3.17;1.60;;;;;;;;;;4974741;28;20230;-73
2022/08/07 02:15:03;;;;;;;3.40;1.80;;;;;;;;;;4974233;28;20249;-74
2022/08/07 02:17:30;;;;;;;5.97;1.80;;;;;;;;;;4973394;28;20305;-74
2022/08/07 02:19:59;;;;;;;4.20;2.00;;;;;;;;;;4954964;29;20706;-73
2022/08/07 02:22:26;;;;;;;5.43;1.90;;;;;;;;;;4955291;29;20313;-74
2022/08/07 02:24:54;;;;;;;3.67;1.80;;;;;;;;;;4954884;29;20309;-73
2022/08/07 02:27:23;;;;;;;6.60;2.00;;;;;;;;;;4954935;29;20286;-73
2022/08/07 02:29:51;;;;;;;3.83;2.00;;;;;;;;;;4955047;29;20249;-73
2022/08/07 02:32:21;;;;;;;2.07;1.73;;;;;;;;;;4954673;29;20291;-74
2022/08/07 02:34:49;;;;;;;3.67;1.70;;;;;;;;;;4955257;29;20246;-73
2022/08/07 02:37:16;;;;;;;5.50;1.70;;;;;;;;;;4954861;29;20255;-73
2022/08/07 02:39:44;;;;;;;5.43;2.07;;;;;;;;;;4954692;29;20231;-73
2022/08/07 02:42:12;;;;;;;6.20;1.90;;;;;;;;;;4954754;29;20277;-74
2022/08/07 02:44:41;;;;;;;7.03;2.43;;;;;;;;;;4954197;28;20238;-74
2022/08/07 02:47:09;;;;;;;4.93;1.70;;;;;;;;;;4963740;28;20591;-74
2022/08/07 02:49:38;;;;;;;2.77;1.80;;;;;;;;;;4973883;28;20242;-74
2022/08/07 02:52:05;;;;;;;7.27;2.03;;;;;;;;;;4974168;28;20285;-74
2022/08/07 02:54:34;;;;;;;2.87;1.87;;;;;;;;;;4973671;28;20289;-73
2022/08/07 02:57:02;;;;;;;5.70;2.20;;;;;;;;;;4966562;28;20647;-73
2022/08/07 02:59:31;;;;;;;6.17;2.20;;;;;;;;;;4954393;29;20647;-74
2022/08/07 03:01:58;;;;;;;3.27;1.87;;;;;;;;;;4935267;29;20330;-73
2022/08/07 03:04:26;;;;;;;7.27;2.30;;;;;;;;;;4935430;29;20257;-73
2022/08/07 03:06:55;;;;;;;4.17;2.40;;;;;;;;;;4934946;29;20258;-73
2022/08/07 03:09:23;;;;;;;3.73;2.00;;;;;;;;;;4935181;29;20298;-74
2022/08/07 03:11:51;;;;;;;4.63;2.10;;;;;;;;;;4935106;29;20243;-73
2022/08/07 03:14:18;;;;;;;3.17;2.10;;;;;;;;;;4935517;29;20209;-73
2022/08/07 03:16:46;;;;;;;5.23;2.20;;;;;;;;;;4935657;29;20294;-73
2022/08/07 03:19:13;;;;;;;3.83;2.00;;;;;;;;;;4935300;29;20212;-74
2022/08/07 03:21:40;;;;;;;6.27;2.37;;;;;;;;;;4934647;29;20318;-74
2022/08/07 03:24:09;;;;;;;3.53;2.20;;;;;;;;;;4935293;29;20246;-74
2022/08/07 03:26:36;;;;;;;4.60;2.13;;;;;;;;;;4935122;29;20214;-74
2022/08/07 03:29:05;;;;;;;4.57;2.30;;;;;;;;;;4934990;29;20639;-73
2022/08/07 03:31:33;;;;;;;3.67;2.13;;;;;;;;;;4934712;29;20267;-73
2022/08/07 03:34:01;;;;;;;4.43;2.33;;;;;;;;;;4934992;29;20211;-73
2022/08/07 03:36:29;;;;;;;4.43;2.33;;;;;;;;;;4934866;29;20210;-73
2022/08/07 03:38:58;;;;;;;3.73;2.10;;;;;;;;;;4935101;29;20267;-74
2022/08/07 03:41:27;;;;;;;4.30;1.97;;;;;;;;;;4934889;29;20651;-74
2022/08/07 03:43:54;;;;;;;3.50;2.30;;;;;;;;;;4935063;29;20207;-73
2022/08/07 03:46:23;;;;;;;5.13;2.30;;;;;;;;;;4934871;29;20246;-74
2022/08/07 03:48:51;;;;;;;3.60;1.93;;;;;;;;;;4935146;29;20686;-73
2022/08/07 03:51:18;;;;;;;3.87;2.33;;;;;;;;;;4934698;29;20668;-73
2022/08/07 03:53:46;;;;;;;6.53;2.70;;;;;;;;;;4934828;29;20677;-73
2022/08/07 03:56:15;;;;;;;4.33;3.00;;;;;;;;;;4935901;29;20218;-73
2022/08/07 03:58:43;;;;;;;4.87;3.70;;;;;;;;;;4938292;29;20262;-73
2022/08/07 04:01:11;;;;;;;5.60;3.63;;;;;;;;;;4950754;29;20337;-73
2022/08/07 04:03:39;;;;;;;7.33;4.07;;;;;;;;;;4957809;29;20244;-73
2022/08/07 04:06:09;;;;;;;5.40;3.67;;;;;;;;;;4957564;29;20208;-73
2022/08/07 04:08:36;;;;;;;4.57;3.30;;;;;;;;;;4957586;29;20205;-73
2022/08/07 04:11:04;;;;;;;3.53;3.07;;;;;;;;;;4957576;29;20233;-73
2022/08/07 04:13:32;;;;;;;4.70;3.70;;;;;;;;;;4957483;29;20768;-74
2022/08/07 04:16:00;;;;;;;5.73;3.30;;;;;;;;;;4957273;29;20241;-73
2022/08/07 04:18:27;;;;;;;6.03;3.20;;;;;;;;;;4957458;29;20214;-73
2022/08/07 04:20:55;;;;;;;6.73;3.00;;;;;;;;;;4956922;29;20238;-73
2022/08/07 04:23:22;;;;;;;7.43;3.07;;;;;;;;;;4957281;29;20606;-73
2022/08/07 04:25:50;;;;;;;5.03;3.17;;;;;;;;;;4957240;29;20242;-73
2022/08/07 04:28:17;;;;;;;3.57;2.50;;;;;;;;;;4957265;29;20799;-74
2022/08/07 04:30:47;;;;;;;3.90;2.60;;;;;;;;;;4957283;29;20293;-73
2022/08/07 04:33:17;;;;;;;6.60;3.03;;;;;;;;;;4957004;29;20237;-74
2022/08/07 04:35:46;;;;;;;5.93;2.50;;;;;;;;;;4956572;29;20206;-73
2022/08/07 04:38:13;;;;;;;5.33;2.90;;;;;;;;;;4957225;29;20220;-73
2022/08/07 04:40:42;;;;;;;3.60;2.63;;;;;;;;;;4956878;29;20295;-73
2022/08/07 04:43:09;;;;;;;4.20;2.70;;;;;;;;;;4957135;29;20320;-74
2022/08/07 04:45:39;;;;;;;5.73;2.60;;;;;;;;;;4957081;29;20248;-73
2022/08/07 04:48:09;;;;;;;4.23;2.63;;;;;;;;;;4956926;29;20237;-73
2022/08/07 04:50:38;;;;;;;3.27;2.47;;;;;;;;;;4956791;29;20297;-73
2022/08/07 04:53:08;;;;;;;3.87;2.60;;;;;;;;;;4956688;29;20284;-73
2022/08/07 04:55:38;;;;;;;3.53;2.43;;;;;;;;;;4956674;29;20248;-73
2022/08/07 04:58:10;;;;;;;7.63;2.90;;;;;;;;;;4956828;29;20277;-73
2022/08/07 05:00:39;;;;;;;3.97;2.70;;;;;;;;;;4956345;29;20326;-73
2022/08/07 05:03:10;;;;;;;7.37;2.87;;;;;;;;;;4956356;29;20321;-73
2022/08/07 05:05:44;;;;;;;4.80;2.67;;;;;;;;;;4956708;29;20244;-74
2022/08/07 05:08:15;;;;;;;4.50;2.70;;;;;;;;;;4956090;28;20259;-73
2022/08/07 05:10:45;;;;;;;3.40;2.40;;;;;;;;;;4956460;29;20210;-73
2022/08/07 05:13:17;;;;;;;3.80;2.20;;;;;;;;;;4956364;29;20232;-73
2022/08/07 05:15:45;;;;;;;6.40;2.57;;;;;;;;;;4956559;29;20234;-74
2022/08/07 05:18:15;;;;;;;5.10;2.60;;;;;;;;;;4956219;29;20206;-73
2022/08/07 05:20:45;;;;;;;5.43;2.77;;;;;;;;;;4956320;29;20643;-73
2022/08/07 05:23:14;;;;;;;4.63;2.67;;;;;;;;;;4956023;29;20316;-73
2022/08/07 05:25:42;;;;;;;6.17;2.73;;;;;;;;;;4956070;29;20210;-73
2022/08/07 05:28:10;;;;;;;5.80;2.50;;;;;;;;;;4956057;29;20637;-74
2022/08/07 05:30:38;;;;;;;4.47;2.60;;;;;;;;;;4956215;29;20226;-74
2022/08/07 05:33:05;;;;;;;4.37;2.23;;;;;;;;;;4955956;29;20614;-74
2022/08/07 05:35:33;;;;;;;5.17;2.13;;;;;;;;;;4956326;29;20214;-74
2022/08/07 05:38:02;;;;;;;3.83;2.50;;;;;;;;;;4955678;29;20234;-74
2022/08/07 05:40:30;;;;;;;5.43;2.50;;;;;;;;;;4955984;29;20246;-74
2022/08/07 05:42:58;;;;;;;5.50;2.00;;;;;;;;;;4955695;29;20669;-74
2022/08/07 05:45:26;;;;;;;4.40;2.23;;;;;;;;;;4956022;29;20234;-74
2022/08/07 05:47:53;;;;;;;2.70;2.13;;;;;;;;;;4955656;29;20238;-74
2022/08/07 05:50:21;;;;;;;3.00;1.90;;;;;;;;;;4955490;29;20717;-74
2022/08/07 05:52:49;;;;;;;5.30;2.23;;;;;;;;;;4955989;29;20230;-74
2022/08/07 05:55:17;;;;;;;4.80;2.10;;;;;;;;;;4955460;29;20739;-74
2022/08/07 05:57:46;;;;;;;3.87;2.50;;;;;;;;;;4955666;29;20254;-74
2022/08/07 06:00:13;;;;;;;3.70;2.07;;;;;;;;;;4955040;29;20277;-74
2022/08/07 06:02:41;;;;;;;4.20;2.50;;;;;;;;;;4955035;29;20725;-74
2022/08/07 06:05:09;;;;;;;4.03;2.17;;;;;;;;;;4955464;29;20199;-74
2022/08/07 06:07:36;;;;;;;5.47;2.47;;;;;;;;;;4955479;29;20660;-74
2022/08/07 06:10:04;;;;;;;4.07;2.60;;;;;;;;;;4955285;29;20241;-74
2022/08/07 06:12:33;;;;;;;4.13;2.03;;;;;;;;;;4955431;29;20302;-74
2022/08/07 06:15:00;;;;;;;2.83;1.87;;;;;;;;;;4955444;29;20322;-74
2022/08/07 06:17:27;;;;;;;4.03;2.00;;;;;;;;;;4954476;29;20202;-74
2022/08/07 06:19:56;;;;;;;4.37;2.17;;;;;;;;;;4954121;28;20238;-74
2022/08/07 06:22:24;;;;;;;3.65;2.25;;;;;;;;;;4954989;29;20337;-74
2022/08/07 06:24:51;;;;;;;2.85;1.80;;;;;;;;;;4954976;29;20235;-74
2022/08/07 06:27:22;;;;;;;3.55;2.10;;;;;;;;;;4954939;29;20203;-74
2022/08/07 06:29:51;;;;;;;3.83;2.00;;;;;;;;;;4955158;29;20290;-75
2022/08/07 06:32:18;;;;;;;4.07;2.00;;;;;;;;;;4954924;29;20246;-74
2022/08/07 06:34:45;;;;;;;5.00;2.00;;;;;;;;;;4955055;29;20231;-74
2022/08/07 06:37:12;;;;;;;3.33;2.05;;;;;;;;;;4954863;29;20262;-74
2022/08/07 06:39:40;;;;;;;5.25;2.25;;;;;;;;;;4955008;29;20611;-74
2022/08/07 06:42:08;;;;;;;5.32;2.35;;;;;;;;;;4955150;29;20227;-74
2022/08/07 06:44:35;;;;;;;2.70;2.00;;;;;;;;;;4954582;29;20234;-74
2022/08/07 06:47:04;;;;;;;3.60;2.20;;;;;;;;;;4955031;29;20628;-74
2022/08/07 06:49:32;;;;;;;3.80;1.80;;;;;;;;;;4954713;29;20290;-74
2022/08/07 06:52:00;;;;;;;3.50;2.00;;;;;;;;;;4954733;29;20234;-74
2022/08/07 06:54:27;;;;;;;6.90;2.10;;;;;;;;;;4954681;29;20289;-74
2022/08/07 06:56:55;;;;;;;3.00;1.83;;;;;;;;;;4954644;29;20238;-74
2022/08/07 06:59:24;;;;;;;3.10;1.70;;;;;;;;;;4958863;28;20257;-74
2022/08/07 07:01:52;;;;;;;4.03;1.73;;;;;;;;;;4973642;28;20277;-74
2022/08/07 07:04:20;;;;;;;3.20;1.77;;;;;;;;;;4973699;28;20674;-75
2022/08/07 07:06:48;;;;;;;2.75;1.77;;;;;;;;;;4974009;28;20297;-74
2022/08/07 07:09:22;;;;;;;2.80;1.40;;;;;;;;;;4974059;28;20205;-74
2022/08/07 07:11:54;;;;;;;2.97;1.88;;;;;;;;;;4973779;28;20289;-74
2022/08/07 07:14:22;;;;;;;4.10;1.70;;;;;;;;;;4973563;28;20210;-74
2022/08/07 07:16:51;;;;;;;1.90;1.58;;;;;;;;;;4973841;28;20233;-74
2022/08/07 07:19:22;;;;;;;4.15;1.77;;;;;;;;;;4973787;28;20241;-74
2022/08/07 07:21:51;;;;;;;5.15;1.60;;;;;;;;;;4974011;28;20607;-74
2022/08/07 07:24:18;;;;;;;3.58;1.83;;;;;;;;;;4973559;28;20262;-74
2022/08/07 07:26:47;;;;;;;2.45;1.50;;;;;;;;;;4973261;28;20289;-74
2022/08/07 07:29:16;;;;;;;4.35;1.83;;;;;;;;;;4973082;28;20237;-74
2022/08/07 07:31:45;;;;;;;3.67;1.70;;;;;;;;;;4975293;28;20203;-74
2022/08/07 07:34:14;;;;;;;2.90;1.50;;;;;;;;;;4977759;28;20233;-74
2022/08/07 07:36:43;;;;;;;5.30;1.52;;;;;;;;;;4977529;28;20241;-74
2022/08/07 07:39:12;;;;;;;2.95;1.70;;;;;;;;;;4977457;28;20249;-74
2022/08/07 07:41:40;;;;;;;3.47;1.30;;;;;;;;;;4977321;28;20230;-74
2022/08/07 07:44:08;;;;;;;3.85;1.70;;;;;;;;;;4977208;28;20266;-74
2022/08/07 07:46:37;;;;;;;3.08;1.38;;;;;;;;;;4976892;28;20202;-74
2022/08/07 07:49:05;;;;;;;3.60;1.70;;;;;;;;;;4977271;28;20718;-74
2022/08/07 07:51:32;;;;;;;3.72;1.52;;;;;;;;;;4977330;28;20289;-74
2022/08/07 07:54:01;;;;;;;3.00;1.50;;;;;;;;;;4977340;28;20304;-74
2022/08/07 07:56:30;;;;;;;3.50;1.60;;;;;;;;;;4977328;28;20289;-74
2022/08/07 07:58:58;;;;;;;2.50;1.33;;;;;;;;;;4975211;28;20257;-74
2022/08/07 08:01:26;;;;;;;2.63;1.70;;;;;;;;;;4957441;29;20326;-74
2022/08/07 08:03:54;;;;;;;3.03;1.60;;;;;;;;;;4957675;29;20266;-74
2022/08/07 08:06:22;;;;;;;2.80;1.50;;;;;;;;;;4957643;29;20263;-74
2022/08/07 08:08:49;;;;;;;2.75;1.70;;;;;;;;;;4957860;29;20246;-74
2022/08/07 08:11:19;;;;;;;1.85;1.30;;;;;;;;;;4957138;29;20239;-75
2022/08/07 08:13:47;;;;;;;2.17;1.50;;;;;;;;;;4957333;29;20234;-74
2022/08/07 08:16:16;;;;;;;1.83;1.40;;;;;;;;;;4957663;29;20239;-74
2022/08/07 08:18:44;;;;;;;3.03;1.55;;;;;;;;;;4957445;29;20203;-74
2022/08/07 08:27:03;;;;;;;2.85;1.30;;;;;;;;;;4957467;29;20249;-74
2022/08/07 08:29:30;;;;;;;2.35;1.50;;;;;;;;;;4957425;29;20202;-74
2022/08/07 08:31:58;;;;;;;2.35;1.70;;;;;;;;;;4957068;29;20239;-74
2022/08/07 08:34:26;;;;;;;1.80;1.58;;;;;;;;;;4957014;29;20730;-74
2022/08/07 08:36:54;;;;;;;1.88;1.50;;;;;;;;;;4957299;29;20242;-74
2022/08/07 08:39:23;;;;;;;2.85;1.60;;;;;;;;;;4957308;29;20234;-74
2022/08/07 08:41:54;;;;;;;4.22;1.70;;;;;;;;;;4956663;29;20730;-74
2022/08/07 08:44:25;;;;;;;1.80;1.40;;;;;;;;;;4956195;29;20219;-74
2022/08/07 08:46:56;;;;;;;2.22;1.60;;;;;;;;;;4956858;29;20230;-74
2022/08/07 08:49:26;;;;;;;2.28;1.48;;;;;;;;;;4956953;29;20683;-74
2022/08/07 08:51:57;;;;;;;1.65;1.55;;;;;;;;;;4957061;29;20203;-74
2022/08/07 08:54:27;;;;;;;2.85;1.70;;;;;;;;;;4956966;29;20233;-74
2022/08/07 08:56:58;;;;;;;2.15;1.55;;;;;;;;;;4956753;29;20234;-74
2022/08/07 08:59:28;;;;;;;1.85;1.40;;;;;;;;;;4956404;29;20313;-74
2022/08/07 09:02:01;;;;;;;2.00;1.60;;;;;;;;;;4937912;29;20716;-74
2022/08/07 09:04:32;;;;;;;3.50;1.60;;;;;;;;;;4937457;29;20626;-74
2022/08/07 09:07:01;;;;;;;3.47;1.70;;;;;;;;;;4937520;29;20393;-74
2022/08/07 09:09:47;;;;;;;2.30;1.48;;;;;;;;;;4937366;29;20294;-74
2022/08/07 09:12:24;;;;;;;2.75;1.63;;;;;;;;;;4937384;29;20699;-74
2022/08/07 09:15:00;;;;;;;3.63;1.85;;;;;;;;;;4937310;29;20291;-74
2022/08/07 09:17:33;;;;;;;2.38;1.40;;;;;;;;;;4937495;29;20292;-74
2022/08/07 09:20:04;;;;;;;3.55;1.40;;;;;;;;;;4937118;29;20250;-74
2022/08/07 09:22:41;;;;;;;2.05;1.40;;;;;;;;;;4937202;29;20287;-74
2022/08/07 09:25:11;;;;;;;1.73;1.33;;;;;;;;;;4936629;29;20247;-74
2022/08/07 09:27:43;;;;;;;2.70;1.40;;;;;;;;;;4936924;29;20577;-73
2022/08/07 09:30:12;;;;;;;3.83;1.60;;;;;;;;;;4937255;29;20625;-73
2022/08/07 09:32:50;;;;;;;4.32;1.67;;;;;;;;;;4937115;29;20290;-73
2022/08/07 09:35:20;;;;;;;1.77;1.42;;;;;;;;;;4936936;29;20290;-73
2022/08/07 09:37:52;;;;;;;2.78;1.35;;;;;;;;;;4936894;29;20291;-73
2022/08/07 09:40:23;;;;;;;2.58;1.50;;;;;;;;;;4936448;29;20691;-73
2022/08/07 09:42:55;;;;;;;3.13;1.40;;;;;;;;;;4936696;29;20243;-73
2022/08/07 09:45:29;;;;;;;4.72;1.50;;;;;;;;;;4936988;29;20298;-73
2022/08/07 09:48:03;;;;;;;2.03;1.55;;;;;;;;;;4936721;29;20239;-73
2022/08/07 09:50:34;;;;;;;2.80;1.55;;;;;;;;;;4936734;29;20242;-73
2022/08/07 09:53:02;;;;;;;1.40;1.30;;;;;;;;;;4936489;29;20207;-73
2022/08/07 09:55:32;;;;;;;2.13;1.30;;;;;;;;;;4936836;29;20263;-74
2022/08/07 09:58:20;;;;;;;2.95;1.60;;;;;;;;;;4936544;29;20324;-73
2022/08/07 10:00:58;;;;;;;2.53;1.23;;;;;;;;;;4942282;29;20700;-73
2022/08/07 10:03:37;;;;;;;2.60;1.30;;;;;;;;;;4955432;29;20238;-73
2022/08/07 10:06:14;;;;;;;4.35;1.40;;;;;;;;;;4955752;29;20298;-73
2022/08/07 10:08:50;;;;;;;2.75;1.38;;;;;;;;;;4955592;29;20234;-73
2022/08/07 10:11:26;;;;;;;1.60;1.30;;;;;;;;;;4955280;29;20247;-74
2022/08/07 10:14:01;;;;;;;2.70;1.50;;;;;;;;;;4955666;29;20312;-73
2022/08/07 10:16:38;;;;;;;5.07;1.65;;;;;;;;;;4955424;29;20241;-73
2022/08/07 10:19:18;;;;;;;2.05;1.50;;;;;;;;;;4955396;29;20609;-73
2022/08/07 10:21:50;;;;;;;5.95;1.60;;;;;;;;;;4955150;29;20625;-73
2022/08/07 10:24:44;;;;;;;1.90;1.30;;;;;;;;;;4954984;29;20321;-73
2022/08/07 10:27:17;;;;;;;3.33;1.52;;;;;;;;;;4955096;29;20545;-74
2022/08/07 10:30:02;;;;;;;2.95;1.42;;;;;;;;;;4955305;29;20203;-73
2022/08/07 10:32:45;;;;;;;2.00;1.48;;;;;;;;;;4954783;29;20261;-73
2022/08/07 10:35:19;;;;;;;3.25;1.60;;;;;;;;;;4951345;29;20211;-74
2022/08/07 10:37:55;;;;;;;1.60;1.50;;;;;;;;;;4954774;29;20210;-73
2022/08/07 10:40:26;;;;;;;3.40;1.63;;;;;;;;;;4955078;29;20270;-74
2022/08/07 10:42:58;;;;;;;2.13;1.48;;;;;;;;;;4955043;29;20298;-73
2022/08/07 10:45:29;;;;;;;2.78;1.50;;;;;;;;;;4954935;29;20284;-73
2022/08/07 10:48:04;;;;;;;1.88;1.30;;;;;;;;;;4954986;29;20215;-73
2022/08/07 10:50:36;;;;;;;2.40;1.55;;;;;;;;;;4954577;29;20249;-74
2022/08/07 10:53:05;;;;;;;1.88;1.25;;;;;;;;;;4954506;29;20734;-74
2022/08/07 10:55:40;;;;;;;1.77;1.20;;;;;;;;;;4955017;29;20199;-73
2022/08/07 10:58:14;;;;;;;1.80;1.40;;;;;;;;;;4954776;29;20733;-74
2022/08/07 11:00:46;;;;;;;1.38;1.20;;;;;;;;;;4954495;29;20274;-76
2022/08/07 11:03:16;;;;;;;1.92;1.50;;;;;;;;;;4955084;29;20199;-74
2022/08/07 11:05:49;;;;;;;1.50;1.27;;;;;;;;;;4954010;29;20313;-74
2022/08/07 11:08:19;;;;;;;1.58;1.38;;;;;;;;;;4955035;29;20289;-73
2022/08/07 11:10:48;;;;;;;4.53;1.40;;;;;;;;;;4954690;29;20295;-73
2022/08/07 11:13:24;;;;;;;2.53;1.50;;;;;;;;;;4954561;29;20242;-73
2022/08/07 11:15:54;;;;;;;1.50;1.20;;;;;;;;;;4954913;29;20234;-73
2022/08/07 11:18:24;;;;;;;2.47;1.50;;;;;;;;;;4954754;29;20242;-76
2022/08/07 11:20:57;;;;;;;2.45;1.20;;;;;;;;;;4954219;29;20211;-76
2022/08/07 11:23:26;;;;;;;2.80;1.10;;;;;;;;;;4954759;29;20206;-76
2022/08/07 11:25:58;;;;;;;2.00;1.08;;;;;;;;;;4954753;29;20761;-73
2022/08/07 11:28:29;;;;;;;3.63;1.42;;;;;;;;;;4954336;29;20205;-74
2022/08/07 11:30:59;;;;;;;1.92;1.25;;;;;;;;;;4954590;29;20286;-76
2022/08/07 11:33:29;;;;;;;2.08;1.20;;;;;;;;;;4954858;29;20211;-75
2022/08/07 11:36:04;;;;;;;2.38;1.33;;;;;;;;;;4954295;29;20239;-76
2022/08/07 11:38:34;;;;;;;2.58;1.27;;;;;;;;;;4954826;29;20277;-76
2022/08/07 11:41:04;;;;;;;1.85;1.30;;;;;;;;;;4954710;29;20235;-75
2022/08/07 11:43:32;;;;;;;3.85;1.10;;;;;;;;;;4954710;29;20234;-75
2022/08/07 11:46:08;;;;;;;3.65;1.20;;;;;;;;;;4954658;29;20214;-76
2022/08/07 11:48:43;;;;;;;3.13;1.25;;;;;;;;;;4954467;29;20210;-73
2022/08/07 11:51:19;;;;;;;1.92;1.20;;;;;;;;;;4954310;29;20238;-73
2022/08/07 11:53:53;;;;;;;1.60;1.13;;;;;;;;;;4954624;29;20286;-75
2022/08/07 11:56:27;;;;;;;1.98;1.10;;;;;;;;;;4954346;29;20253;-75
2022/08/07 11:59:00;;;;;;;3.38;1.17;;;;;;;;;;4954278;29;20254;-76
2022/08/07 12:01:33;;;;;;;1.42;1.08;;;;;;;;;;4954122;28;20271;-75
2022/08/07 12:04:09;;;;;;;1.10;1.00;;;;;;;;;;4953954;29;20314;-76
2022/08/07 12:06:45;;;;;;;2.08;0.90;;;;;;;;;;4954173;29;20207;-75
2022/08/07 12:09:16;;;;;;;1.40;1.00;;;;;;;;;;4954326;29;20206;-75
2022/08/07 12:11:46;;;;;;;2.17;1.38;;;;;;;;;;4954353;29;20630;-75
2022/08/07 12:14:17;;;;;;;1.70;1.10;;;;;;;;;;4954261;29;20723;-76
2022/08/07 12:16:48;;;;;;;1.13;1.05;;;;;;;;;;4954250;28;20207;-76
2022/08/07 12:19:20;;;;;;;2.50;1.00;;;;;;;;;;4956137;29;20214;-75
2022/08/07 12:21:53;;;;;;;1.23;1.10;;;;;;;;;;4957647;29;20675;-75
2022/08/07 12:24:23;;;;;;;1.10;1.00;;;;;;;;;;4957357;29;20248;-75
2022/08/07 12:26:54;;;;;;;1.25;0.90;;;;;;;;;;4957657;29;20262;-73
2022/08/07 12:29:24;;;;;;;3.17;1.00;;;;;;;;;;4957443;29;20262;-73
2022/08/07 12:31:58;;;;;;;1.73;1.13;;;;;;;;;;4957025;29;20239;-73
2022/08/07 12:34:27;;;;;;;1.88;1.10;;;;;;;;;;4957276;29;20203;-73
2022/08/07 12:36:57;;;;;;;1.55;1.00;;;;;;;;;;4957292;29;20254;-73
2022/08/07 12:39:25;;;;;;;3.35;1.17;;;;;;;;;;4957167;29;20243;-73
2022/08/07 12:41:52;;;;;;;1.38;0.98;;;;;;;;;;4956827;29;20293;-75
2022/08/07 12:44:21;;;;;;;1.70;1.02;;;;;;;;;;4956993;29;20262;-74
2022/08/07 12:46:55;;;;;;;3.00;0.90;;;;;;;;;;4956485;29;20725;-74
2022/08/07 12:49:26;;;;;;;2.20;1.00;;;;;;;;;;4957004;29;20242;-75
2022/08/07 12:52:01;;;;;;;1.73;0.98;;;;;;;;;;4956815;29;20262;-75
2022/08/07 12:54:32;;;;;;;1.45;0.98;;;;;;;;;;4956788;29;20250;-74
2022/08/07 12:56:59;;;;;;;2.17;1.10;;;;;;;;;;4956908;29;20235;-75
2022/08/07 12:59:28;;;;;;;1.73;1.15;;;;;;;;;;4962002;28;20742;-75
2022/08/07 13:02:02;;;;;;;5.35;1.00;;;;;;;;;;4956740;28;20289;-75
2022/08/07 13:04:41;;;;;;;1.52;0.90;;;;;;;;;;4956569;28;20583;-74
2022/08/07 13:07:16;;;;;;;2.20;0.90;;;;;;;;;;4956805;28;20266;-74
2022/08/07 13:09:50;;;;;;;1.30;0.90;;;;;;;;;;4956400;29;20289;-74
2022/08/07 13:12:23;;;;;;;1.13;0.80;;;;;;;;;;4956781;29;20234;-74
2022/08/07 13:14:58;;;;;;;1.10;1.00;;;;;;;;;;4956741;29;20234;-74
2022/08/07 13:17:31;;;;;;;1.98;0.90;;;;;;;;;;4956317;29;20293;-74
2022/08/07 13:20:03;;;;;;;2.38;0.88;;;;;;;;;;4956330;29;20209;-75
2022/08/07 13:22:34;;;;;;;2.10;1.20;;;;;;;;;;4956262;28;20290;-74
2022/08/07 13:25:03;;;;;;;1.27;0.90;;;;;;;;;;4956002;29;20741;-74
2022/08/07 13:27:34;;;;;;;1.25;1.02;;;;;;;;;;4956397;29;20235;-74
2022/08/07 13:30:03;;;;;;;1.48;0.95;;;;;;;;;;4955722;28;20207;-74
2022/08/07 13:32:33;;;;;;;4.93;1.10;;;;;;;;;;4955700;29;20671;-74
2022/08/07 13:35:04;;;;;;;1.33;1.00;;;;;;;;;;4955893;28;20711;-75
2022/08/07 13:37:39;;;;;;;1.00;0.90;;;;;;;;;;4956209;29;20266;-74
2022/08/07 13:40:13;;;;;;;3.53;1.00;;;;;;;;;;4956006;29;20217;-77
2022/08/07 13:42:41;;;;;;;2.45;1.20;;;;;;;;;;4956098;28;20214;-77
2022/08/07 13:45:09;;;;;;;2.20;0.90;;;;;;;;;;4955583;29;20269;-77
2022/08/07 13:47:37;;;;;;;1.60;0.88;;;;;;;;;;4956283;29;20203;-77
2022/08/07 13:50:06;;;;;;;1.95;1.00;;;;;;;;;;4956301;29;20255;-77
2022/08/07 13:52:37;;;;;;;2.28;0.95;;;;;;;;;;4955849;29;20285;-74
2022/08/07 13:55:07;;;;;;;1.00;0.80;;;;;;;;;;4955634;29;20230;-75
2022/08/07 13:57:34;;;;;;;1.45;0.90;;;;;;;;;;4955611;29;20306;-74
2022/08/07 14:00:02;;;;;;;2.72;1.00;;;;;;;;;;4948602;29;20307;-74
2022/08/07 14:02:34;;;;;;;2.42;1.17;;;;;;;;;;4955688;29;20203;-74
2022/08/07 14:05:03;;;;;;;1.30;1.15;;;;;;;;;;4955447;29;20231;-74
2022/08/07 14:07:32;;;;;;;3.88;1.20;;;;;;;;;;4955548;29;20207;-74
2022/08/07 14:10:02;;;;;;;1.52;0.98;;;;;;;;;;4955434;29;20290;-74
2022/08/07 14:12:33;;;;;;;1.50;1.20;;;;;;;;;;4955655;29;20231;-74
2022/08/07 14:15:02;;;;;;;1.77;1.15;;;;;;;;;;4955455;29;20230;-74
2022/08/07 14:17:30;;;;;;;2.17;1.17;;;;;;;;;;4955583;29;20238;-74
2022/08/07 14:20:00;;;;;;;4.43;1.30;;;;;;;;;;4955207;29;20302;-74
2022/08/07 14:22:29;;;;;;;2.25;1.15;;;;;;;;;;4955077;29;20247;-74
2022/08/07 14:25:00;;;;;;;2.22;1.27;;;;;;;;;;4955186;29;20318;-74
2022/08/07 14:27:41;;;;;;;1.48;1.20;;;;;;;;;;4955122;29;20203;-74
2022/08/07 14:30:10;;;;;;;2.42;1.25;;;;;;;;;;4954901;29;20635;-74
2022/08/07 14:32:44;;;;;;;1.70;1.05;;;;;;;;;;4955344;29;20210;-74
2022/08/07 14:35:12;;;;;;;1.40;1.10;;;;;;;;;;4955110;29;20199;-74
2022/08/07 14:37:40;;;;;;;1.50;1.20;;;;;;;;;;4954752;29;20238;-74
2022/08/07 14:40:13;;;;;;;2.05;1.25;;;;;;;;;;4955032;28;20206;-74
2022/08/07 14:42:42;;;;;;;2.72;1.45;;;;;;;;;;4954704;29;20245;-74
2022/08/07 14:45:11;;;;;;;1.80;1.40;;;;;;;;;;4954828;29;20258;-74
2022/08/07 14:47:40;;;;;;;1.70;1.23;;;;;;;;;;4954934;29;20563;-74
2022/08/07 14:50:08;;;;;;;2.70;1.20;;;;;;;;;;4954996;29;20234;-74
2022/08/07 14:52:37;;;;;;;2.67;1.40;;;;;;;;;;4954781;29;20207;-74
2022/08/07 14:55:04;;;;;;;3.13;1.40;;;;;;;;;;4954978;29;20203;-74
2022/08/07 14:57:33;;;;;;;1.77;1.30;;;;;;;;;;4954427;29;20258;-74
2022/08/07 15:00:03;;;;;;;1.77;1.30;;;;;;;;;;4954418;28;20231;-74
2022/08/07 15:02:30;;;;;;;1.65;1.38;;;;;;;;;;4954633;29;20299;-74
2022/08/07 15:04:57;;;;;;;1.30;1.20;;;;;;;;;;4954842;29;20265;-74